sensor_id;sensor_type;location;lat;lon;timestamp;P1;durP1;ratioP1;P2;durP2;ratioP2
10248;SDS011;5169;50.560;9.714;2023-06-10T00:00:17;379.13;;;162.87;;
10248;SDS011;5169;50.560;9.714;2023-06-10T00:02:43;378.30;;;160.03;;
10248;SDS011;5169;50.560;9.714;2023-06-10T00:05:09;381.80;;;161.67;;
10248;SDS011;5169;50.560;9.714;2023-06-10T00:07:35;380.67;;;160.40;;
10248;SDS011;5169;50.560;9.714;2023-06-10T00:10:07;380.80;;;156.83;;
10248;SDS011;5169;50.560;9.714;2023-06-10T00:12:33;378.13;;;157.67;;
10248;SDS011;5169;50.560;9.714;2023-06-10T00:15:10;380.87;;;161.33;;
10248;SDS011;5169;50.560;9.714;2023-06-10T00:17:35;375.07;;;152.30;;
10248;SDS011;5169;50.560;9.714;2023-06-10T00:20:10;376.90;;;155.83;;
10248;SDS011;5169;50.560;9.714;2023-06-10T00:22:37;377.13;;;153.97;;
10248;SDS011;5169;50.560;9.714;2023-06-10T00:25:07;376.37;;;154.17;;
10248;SDS011;5169;50.560;9.714;2023-06-10T00:27:35;378.07;;;152.97;;
10248;SDS011;5169;50.560;9.714;2023-06-10T00:30:09;375.17;;;156.67;;
10248;SDS011;5169;50.560;9.714;2023-06-10T00:32:38;376.93;;;154.57;;
10248;SDS011;5169;50.560;9.714;2023-06-10T00:35:11;377.33;;;156.70;;
10248;SDS011;5169;50.560;9.714;2023-06-10T00:37:39;378.93;;;150.87;;
10248;SDS011;5169;50.560;9.714;2023-06-10T00:40:05;370.37;;;142.47;;
10248;SDS011;5169;50.560;9.714;2023-06-10T00:42:36;370.93;;;144.53;;
10248;SDS011;5169;50.560;9.714;2023-06-10T00:45:05;375.13;;;148.77;;
10248;SDS011;5169;50.560;9.714;2023-06-10T00:47:38;374.80;;;146.30;;
10248;SDS011;5169;50.560;9.714;2023-06-10T00:50:07;375.33;;;144.97;;
10248;SDS011;5169;50.560;9.714;2023-06-10T00:52:41;375.33;;;153.00;;
10248;SDS011;5169;50.560;9.714;2023-06-10T00:55:12;375.47;;;151.47;;
10248;SDS011;5169;50.560;9.714;2023-06-10T00:57:40;371.00;;;142.70;;
10248;SDS011;5169;50.560;9.714;2023-06-10T01:00:12;369.37;;;142.00;;
10248;SDS011;5169;50.560;9.714;2023-06-10T01:02:38;377.17;;;156.00;;
10248;SDS011;5169;50.560;9.714;2023-06-10T01:05:04;370.33;;;144.17;;
10248;SDS011;5169;50.560;9.714;2023-06-10T01:07:33;372.07;;;150.17;;
10248;SDS011;5169;50.560;9.714;2023-06-10T01:10:12;374.13;;;153.37;;
10248;SDS011;5169;50.560;9.714;2023-06-10T01:15:15;370.17;;;148.77;;
10248;SDS011;5169;50.560;9.714;2023-06-10T01:18:03;374.67;;;149.07;;
10248;SDS011;5169;50.560;9.714;2023-06-10T01:20:38;372.70;;;143.83;;
10248;SDS011;5169;50.560;9.714;2023-06-10T01:23:08;369.97;;;139.53;;
10248;SDS011;5169;50.560;9.714;2023-06-10T01:25:46;371.57;;;144.40;;
10248;SDS011;5169;50.560;9.714;2023-06-10T01:28:18;371.37;;;142.43;;
10248;SDS011;5169;50.560;9.714;2023-06-10T01:31:07;368.90;;;145.47;;
10248;SDS011;5169;50.560;9.714;2023-06-10T01:33:51;364.70;;;138.17;;
10248;SDS011;5169;50.560;9.714;2023-06-10T01:36:23;367.03;;;135.23;;
10248;SDS011;5169;50.560;9.714;2023-06-10T01:38:54;369.33;;;141.97;;
10248;SDS011;5169;50.560;9.714;2023-06-10T01:41:23;369.77;;;143.57;;
10248;SDS011;5169;50.560;9.714;2023-06-10T01:43:51;370.17;;;143.93;;
10248;SDS011;5169;50.560;9.714;2023-06-10T01:46:19;371.67;;;140.20;;
10248;SDS011;5169;50.560;9.714;2023-06-10T01:48:47;367.23;;;137.70;;
10248;SDS011;5169;50.560;9.714;2023-06-10T01:51:13;367.63;;;139.63;;
10248;SDS011;5169;50.560;9.714;2023-06-10T01:53:40;370.27;;;142.47;;
10248;SDS011;5169;50.560;9.714;2023-06-10T01:56:06;366.90;;;141.87;;
10248;SDS011;5169;50.560;9.714;2023-06-10T01:58:35;371.77;;;144.97;;
10248;SDS011;5169;50.560;9.714;2023-06-10T02:01:03;361.50;;;132.03;;
10248;SDS011;5169;50.560;9.714;2023-06-10T02:03:38;366.33;;;136.67;;
10248;SDS011;5169;50.560;9.714;2023-06-10T02:06:03;364.77;;;133.83;;
10248;SDS011;5169;50.560;9.714;2023-06-10T02:08:29;370.33;;;139.83;;
10248;SDS011;5169;50.560;9.714;2023-06-10T02:11:02;363.97;;;129.40;;
10248;SDS011;5169;50.560;9.714;2023-06-10T02:13:28;366.17;;;137.10;;
10248;SDS011;5169;50.560;9.714;2023-06-10T02:16:01;369.27;;;138.03;;
10248;SDS011;5169;50.560;9.714;2023-06-10T02:18:27;367.50;;;134.87;;
10248;SDS011;5169;50.560;9.714;2023-06-10T02:20:55;364.10;;;134.57;;
10248;SDS011;5169;50.560;9.714;2023-06-10T02:23:26;369.60;;;139.23;;
10248;SDS011;5169;50.560;9.714;2023-06-10T02:25:52;365.70;;;129.07;;
10248;SDS011;5169;50.560;9.714;2023-06-10T02:28:18;364.83;;;131.57;;
10248;SDS011;5169;50.560;9.714;2023-06-10T02:30:43;369.47;;;131.93;;
10248;SDS011;5169;50.560;9.714;2023-06-10T02:33:10;363.37;;;125.80;;
10248;SDS011;5169;50.560;9.714;2023-06-10T02:35:40;365.17;;;131.73;;
10248;SDS011;5169;50.560;9.714;2023-06-10T02:38:06;367.40;;;137.93;;
10248;SDS011;5169;50.560;9.714;2023-06-10T02:40:34;366.67;;;140.03;;
10248;SDS011;5169;50.560;9.714;2023-06-10T02:43:00;361.43;;;141.27;;
10248;SDS011;5169;50.560;9.714;2023-06-10T02:45:34;355.03;;;139.57;;
10248;SDS011;5169;50.560;9.714;2023-06-10T02:47:59;355.57;;;140.63;;
10248;SDS011;5169;50.560;9.714;2023-06-10T02:50:28;345.37;;;132.87;;
10248;SDS011;5169;50.560;9.714;2023-06-10T02:52:56;352.80;;;138.87;;
10248;SDS011;5169;50.560;9.714;2023-06-10T02:55:21;352.60;;;134.90;;
10248;SDS011;5169;50.560;9.714;2023-06-10T02:57:52;347.03;;;134.83;;
10248;SDS011;5169;50.560;9.714;2023-06-10T03:00:19;340.33;;;135.50;;
10248;SDS011;5169;50.560;9.714;2023-06-10T03:02:46;339.23;;;137.20;;
10248;SDS011;5169;50.560;9.714;2023-06-10T03:05:14;338.80;;;136.43;;
10248;SDS011;5169;50.560;9.714;2023-06-10T03:07:39;333.30;;;131.93;;
10248;SDS011;5169;50.560;9.714;2023-06-10T03:10:08;330.83;;;132.23;;
10248;SDS011;5169;50.560;9.714;2023-06-10T03:12:34;327.87;;;130.40;;
10248;SDS011;5169;50.560;9.714;2023-06-10T03:14:59;327.60;;;133.53;;
10248;SDS011;5169;50.560;9.714;2023-06-10T03:17:25;326.47;;;136.07;;
10248;SDS011;5169;50.560;9.714;2023-06-10T03:19:51;332.67;;;138.13;;
10248;SDS011;5169;50.560;9.714;2023-06-10T03:22:17;317.47;;;135.03;;
10248;SDS011;5169;50.560;9.714;2023-06-10T03:24:50;318.23;;;134.60;;
10248;SDS011;5169;50.560;9.714;2023-06-10T03:27:18;330.83;;;154.33;;
10248;SDS011;5169;50.560;9.714;2023-06-10T03:29:44;310.17;;;131.17;;
10248;SDS011;5169;50.560;9.714;2023-06-10T03:32:13;318.63;;;132.80;;
10248;SDS011;5169;50.560;9.714;2023-06-10T03:34:41;312.63;;;133.17;;
10248;SDS011;5169;50.560;9.714;2023-06-10T03:37:13;311.17;;;136.60;;
10248;SDS011;5169;50.560;9.714;2023-06-10T03:39:39;313.13;;;136.60;;
10248;SDS011;5169;50.560;9.714;2023-06-10T03:42:05;311.93;;;130.47;;
10248;SDS011;5169;50.560;9.714;2023-06-10T03:44:31;317.60;;;134.57;;
10248;SDS011;5169;50.560;9.714;2023-06-10T03:46:57;320.23;;;135.33;;
10248;SDS011;5169;50.560;9.714;2023-06-10T03:49:22;317.50;;;131.97;;
10248;SDS011;5169;50.560;9.714;2023-06-10T03:51:54;311.47;;;130.37;;
10248;SDS011;5169;50.560;9.714;2023-06-10T03:54:20;307.13;;;134.83;;
10248;SDS011;5169;50.560;9.714;2023-06-10T03:56:45;317.10;;;133.80;;
10248;SDS011;5169;50.560;9.714;2023-06-10T03:59:17;310.10;;;136.67;;
10248;SDS011;5169;50.560;9.714;2023-06-10T04:01:42;316.63;;;134.13;;
10248;SDS011;5169;50.560;9.714;2023-06-10T04:04:08;318.43;;;136.90;;
10248;SDS011;5169;50.560;9.714;2023-06-10T04:06:35;314.83;;;136.60;;
10248;SDS011;5169;50.560;9.714;2023-06-10T04:09:05;316.93;;;136.90;;
10248;SDS011;5169;50.560;9.714;2023-06-10T04:11:37;310.27;;;141.53;;
10248;SDS011;5169;50.560;9.714;2023-06-10T04:14:05;311.33;;;138.13;;
10248;SDS011;5169;50.560;9.714;2023-06-10T04:16:33;306.87;;;135.57;;
10248;SDS011;5169;50.560;9.714;2023-06-10T04:19:00;303.97;;;131.00;;
10248;SDS011;5169;50.560;9.714;2023-06-10T04:21:35;298.97;;;134.33;;
10248;SDS011;5169;50.560;9.714;2023-06-10T04:24:01;307.57;;;136.97;;
10248;SDS011;5169;50.560;9.714;2023-06-10T04:26:29;312.77;;;133.63;;
10248;SDS011;5169;50.560;9.714;2023-06-10T04:28:55;314.77;;;143.67;;
10248;SDS011;5169;50.560;9.714;2023-06-10T04:31:21;305.53;;;136.23;;
10248;SDS011;5169;50.560;9.714;2023-06-10T04:33:46;308.17;;;140.23;;
10248;SDS011;5169;50.560;9.714;2023-06-10T04:36:12;300.73;;;137.77;;
10248;SDS011;5169;50.560;9.714;2023-06-10T04:38:37;312.00;;;137.47;;
10248;SDS011;5169;50.560;9.714;2023-06-10T04:41:06;322.23;;;145.20;;
10248;SDS011;5169;50.560;9.714;2023-06-10T04:43:31;320.37;;;138.87;;
10248;SDS011;5169;50.560;9.714;2023-06-10T04:45:57;330.77;;;143.53;;
10248;SDS011;5169;50.560;9.714;2023-06-10T04:48:23;329.03;;;149.83;;
10248;SDS011;5169;50.560;9.714;2023-06-10T04:50:55;318.53;;;144.23;;
10248;SDS011;5169;50.560;9.714;2023-06-10T04:53:21;334.03;;;146.17;;
10248;SDS011;5169;50.560;9.714;2023-06-10T04:55:47;335.23;;;147.40;;
10248;SDS011;5169;50.560;9.714;2023-06-10T04:58:15;332.80;;;150.17;;
10248;SDS011;5169;50.560;9.714;2023-06-10T05:00:46;321.67;;;148.67;;
10248;SDS011;5169;50.560;9.714;2023-06-10T05:03:14;335.43;;;147.70;;
10248;SDS011;5169;50.560;9.714;2023-06-10T05:05:47;340.27;;;158.60;;
10248;SDS011;5169;50.560;9.714;2023-06-10T05:08:19;336.50;;;150.40;;
10248;SDS011;5169;50.560;9.714;2023-06-10T05:10:45;344.00;;;155.93;;
10248;SDS011;5169;50.560;9.714;2023-06-10T05:13:10;338.33;;;153.57;;
10248;SDS011;5169;50.560;9.714;2023-06-10T05:15:36;326.30;;;159.00;;
10248;SDS011;5169;50.560;9.714;2023-06-10T05:18:02;338.47;;;162.73;;
10248;SDS011;5169;50.560;9.714;2023-06-10T05:20:31;339.47;;;164.33;;
10248;SDS011;5169;50.560;9.714;2023-06-10T05:23:08;339.50;;;155.63;;
10248;SDS011;5169;50.560;9.714;2023-06-10T05:25:33;350.97;;;170.60;;
10248;SDS011;5169;50.560;9.714;2023-06-10T05:28:01;349.20;;;162.80;;
10248;SDS011;5169;50.560;9.714;2023-06-10T05:30:27;337.13;;;169.27;;
10248;SDS011;5169;50.560;9.714;2023-06-10T05:32:58;335.67;;;167.10;;
10248;SDS011;5169;50.560;9.714;2023-06-10T05:35:24;338.80;;;175.70;;
10248;SDS011;5169;50.560;9.714;2023-06-10T05:37:50;343.33;;;183.10;;
10248;SDS011;5169;50.560;9.714;2023-06-10T05:40:23;351.63;;;198.43;;
10248;SDS011;5169;50.560;9.714;2023-06-10T05:42:50;345.80;;;213.07;;
10248;SDS011;5169;50.560;9.714;2023-06-10T05:45:23;352.57;;;243.10;;
10248;SDS011;5169;50.560;9.714;2023-06-10T05:47:51;358.80;;;273.23;;
10248;SDS011;5169;50.560;9.714;2023-06-10T05:50:25;367.33;;;299.83;;
10248;SDS011;5169;50.560;9.714;2023-06-10T05:52:51;373.60;;;325.97;;
10248;SDS011;5169;50.560;9.714;2023-06-10T05:55:19;406.03;;;361.63;;
10248;SDS011;5169;50.560;9.714;2023-06-10T05:57:45;432.70;;;389.00;;
10248;SDS011;5169;50.560;9.714;2023-06-10T06:00:10;446.83;;;403.47;;
10248;SDS011;5169;50.560;9.714;2023-06-10T06:02:36;478.90;;;435.20;;
10248;SDS011;5169;50.560;9.714;2023-06-10T06:05:02;482.33;;;438.27;;
10248;SDS011;5169;50.560;9.714;2023-06-10T06:07:34;482.37;;;439.27;;
10248;SDS011;5169;50.560;9.714;2023-06-10T06:10:00;475.37;;;430.43;;
10248;SDS011;5169;50.560;9.714;2023-06-10T06:12:25;512.20;;;466.57;;
10248;SDS011;5169;50.560;9.714;2023-06-10T06:14:51;504.57;;;458.70;;
10248;SDS011;5169;50.560;9.714;2023-06-10T06:17:19;491.30;;;446.10;;
10248;SDS011;5169;50.560;9.714;2023-06-10T06:19:47;500.73;;;454.80;;
10248;SDS011;5169;50.560;9.714;2023-06-10T06:22:15;478.27;;;432.80;;
10248;SDS011;5169;50.560;9.714;2023-06-10T06:24:44;501.53;;;454.67;;
10248;SDS011;5169;50.560;9.714;2023-06-10T06:27:10;482.77;;;436.43;;
10248;SDS011;5169;50.560;9.714;2023-06-10T06:29:38;482.17;;;435.30;;
10248;SDS011;5169;50.560;9.714;2023-06-10T06:32:08;476.67;;;429.67;;
10248;SDS011;5169;50.560;9.714;2023-06-10T06:34:34;487.90;;;441.27;;
10248;SDS011;5169;50.560;9.714;2023-06-10T06:36:59;447.87;;;402.43;;
10248;SDS011;5169;50.560;9.714;2023-06-10T06:39:25;439.60;;;394.17;;
10248;SDS011;5169;50.560;9.714;2023-06-10T06:41:50;430.60;;;384.10;;
10248;SDS011;5169;50.560;9.714;2023-06-10T06:44:16;447.60;;;400.90;;
10248;SDS011;5169;50.560;9.714;2023-06-10T06:46:47;446.90;;;401.67;;
10248;SDS011;5169;50.560;9.714;2023-06-10T06:49:14;424.83;;;378.93;;
10248;SDS011;5169;50.560;9.714;2023-06-10T06:51:39;421.30;;;376.17;;
10248;SDS011;5169;50.560;9.714;2023-06-10T06:54:08;409.27;;;352.27;;
10248;SDS011;5169;50.560;9.714;2023-06-10T06:56:33;408.93;;;353.13;;
10248;SDS011;5169;50.560;9.714;2023-06-10T06:58:59;419.80;;;369.33;;
10248;SDS011;5169;50.560;9.714;2023-06-10T07:01:25;406.80;;;346.70;;
10248;SDS011;5169;50.560;9.714;2023-06-10T07:03:50;398.77;;;337.70;;
10248;SDS011;5169;50.560;9.714;2023-06-10T07:06:16;407.37;;;332.93;;
10248;SDS011;5169;50.560;9.714;2023-06-10T07:08:44;410.67;;;332.53;;
10248;SDS011;5169;50.560;9.714;2023-06-10T07:11:10;402.07;;;335.00;;
10248;SDS011;5169;50.560;9.714;2023-06-10T07:13:35;400.30;;;317.23;;
10248;SDS011;5169;50.560;9.714;2023-06-10T07:16:08;402.70;;;316.70;;
10248;SDS011;5169;50.560;9.714;2023-06-10T07:18:34;393.20;;;323.00;;
10248;SDS011;5169;50.560;9.714;2023-06-10T07:21:00;403.43;;;306.93;;
10248;SDS011;5169;50.560;9.714;2023-06-10T07:23:25;411.40;;;326.33;;
10248;SDS011;5169;50.560;9.714;2023-06-10T07:25:51;414.13;;;319.53;;
10248;SDS011;5169;50.560;9.714;2023-06-10T07:28:24;410.60;;;316.90;;
10248;SDS011;5169;50.560;9.714;2023-06-10T07:30:49;414.47;;;319.60;;
10248;SDS011;5169;50.560;9.714;2023-06-10T07:33:15;416.17;;;324.97;;
10248;SDS011;5169;50.560;9.714;2023-06-10T07:35:41;417.53;;;349.00;;
10248;SDS011;5169;50.560;9.714;2023-06-10T07:38:11;416.43;;;338.23;;
10248;SDS011;5169;50.560;9.714;2023-06-10T07:40:38;419.97;;;354.23;;
10248;SDS011;5169;50.560;9.714;2023-06-10T07:43:04;420.57;;;338.07;;
10248;SDS011;5169;50.560;9.714;2023-06-10T07:45:30;414.37;;;342.43;;
10248;SDS011;5169;50.560;9.714;2023-06-10T07:48:03;417.83;;;343.30;;
10248;SDS011;5169;50.560;9.714;2023-06-10T07:50:29;417.97;;;346.17;;
10248;SDS011;5169;50.560;9.714;2023-06-10T07:52:59;416.47;;;352.63;;
10248;SDS011;5169;50.560;9.714;2023-06-10T07:55:27;418.20;;;359.40;;
10248;SDS011;5169;50.560;9.714;2023-06-10T07:57:53;416.17;;;352.30;;
10248;SDS011;5169;50.560;9.714;2023-06-10T08:00:22;417.90;;;361.40;;
10248;SDS011;5169;50.560;9.714;2023-06-10T08:02:50;429.73;;;368.13;;
10248;SDS011;5169;50.560;9.714;2023-06-10T08:05:17;416.03;;;348.37;;
10248;SDS011;5169;50.560;9.714;2023-06-10T08:07:42;408.80;;;355.17;;
10248;SDS011;5169;50.560;9.714;2023-06-10T08:10:24;436.00;;;383.80;;
10248;SDS011;5169;50.560;9.714;2023-06-10T08:12:52;433.90;;;373.30;;
10248;SDS011;5169;50.560;9.714;2023-06-10T08:15:22;429.57;;;361.83;;
10248;SDS011;5169;50.560;9.714;2023-06-10T08:17:48;430.43;;;366.87;;
10248;SDS011;5169;50.560;9.714;2023-06-10T08:20:14;432.93;;;371.83;;
10248;SDS011;5169;50.560;9.714;2023-06-10T08:22:39;437.27;;;389.13;;
10248;SDS011;5169;50.560;9.714;2023-06-10T08:25:05;447.80;;;399.27;;
10248;SDS011;5169;50.560;9.714;2023-06-10T08:27:31;430.17;;;371.43;;
10248;SDS011;5169;50.560;9.714;2023-06-10T08:29:59;432.80;;;383.07;;
10248;SDS011;5169;50.560;9.714;2023-06-10T08:32:25;431.33;;;380.93;;
10248;SDS011;5169;50.560;9.714;2023-06-10T08:34:53;431.87;;;378.57;;
10248;SDS011;5169;50.560;9.714;2023-06-10T08:37:19;442.57;;;393.93;;
10248;SDS011;5169;50.560;9.714;2023-06-10T08:39:47;437.43;;;388.43;;
10248;SDS011;5169;50.560;9.714;2023-06-10T08:42:17;432.63;;;382.33;;
10248;SDS011;5169;50.560;9.714;2023-06-10T08:44:51;435.13;;;387.10;;
10248;SDS011;5169;50.560;9.714;2023-06-10T08:47:26;447.83;;;399.47;;
10248;SDS011;5169;50.560;9.714;2023-06-10T08:50:01;440.07;;;391.40;;
10248;SDS011;5169;50.560;9.714;2023-06-10T08:52:36;451.13;;;402.60;;
10248;SDS011;5169;50.560;9.714;2023-06-10T08:55:17;440.50;;;392.40;;
10248;SDS011;5169;50.560;9.714;2023-06-10T08:57:51;430.77;;;378.77;;
10248;SDS011;5169;50.560;9.714;2023-06-10T09:00:17;440.10;;;391.97;;
10248;SDS011;5169;50.560;9.714;2023-06-10T09:02:48;434.63;;;386.50;;
10248;SDS011;5169;50.560;9.714;2023-06-10T09:05:16;439.30;;;391.00;;
10248;SDS011;5169;50.560;9.714;2023-06-10T09:07:42;439.30;;;391.23;;
10248;SDS011;5169;50.560;9.714;2023-06-10T09:10:12;460.03;;;411.30;;
10248;SDS011;5169;50.560;9.714;2023-06-10T09:12:40;442.77;;;394.80;;
10248;SDS011;5169;50.560;9.714;2023-06-10T09:15:06;467.00;;;418.17;;
10248;SDS011;5169;50.560;9.714;2023-06-10T09:17:37;470.67;;;421.83;;
10248;SDS011;5169;50.560;9.714;2023-06-10T09:20:05;475.57;;;426.67;;
10248;SDS011;5169;50.560;9.714;2023-06-10T09:22:41;475.73;;;427.10;;
10248;SDS011;5169;50.560;9.714;2023-06-10T09:25:13;492.67;;;443.70;;
10248;SDS011;5169;50.560;9.714;2023-06-10T09:27:49;502.53;;;453.30;;
10248;SDS011;5169;50.560;9.714;2023-06-10T09:30:25;506.00;;;456.57;;
10248;SDS011;5169;50.560;9.714;2023-06-10T09:32:56;533.67;;;483.20;;
10248;SDS011;5169;50.560;9.714;2023-06-10T09:35:26;533.27;;;483.13;;
10248;SDS011;5169;50.560;9.714;2023-06-10T09:37:55;520.37;;;470.70;;
10248;SDS011;5169;50.560;9.714;2023-06-10T09:40:30;526.67;;;476.60;;
10248;SDS011;5169;50.560;9.714;2023-06-10T09:43:00;526.63;;;476.80;;
10248;SDS011;5169;50.560;9.714;2023-06-10T09:45:29;537.40;;;487.13;;
10248;SDS011;5169;50.560;9.714;2023-06-10T09:48:02;519.53;;;469.60;;
10248;SDS011;5169;50.560;9.714;2023-06-10T09:50:30;510.53;;;460.73;;
10248;SDS011;5169;50.560;9.714;2023-06-10T09:53:06;515.30;;;465.43;;
10248;SDS011;5169;50.560;9.714;2023-06-10T09:55:39;525.90;;;475.77;;
10248;SDS011;5169;50.560;9.714;2023-06-10T09:58:06;527.37;;;477.50;;
10248;SDS011;5169;50.560;9.714;2023-06-10T10:00:39;495.93;;;446.93;;
10248;SDS011;5169;50.560;9.714;2023-06-10T10:03:05;509.23;;;459.80;;
10248;SDS011;5169;50.560;9.714;2023-06-10T10:05:32;485.07;;;436.27;;
10248;SDS011;5169;50.560;9.714;2023-06-10T10:08:01;496.57;;;447.47;;
10248;SDS011;5169;50.560;9.714;2023-06-10T10:10:26;506.77;;;457.60;;
10248;SDS011;5169;50.560;9.714;2023-06-10T10:12:54;515.80;;;466.30;;
10248;SDS011;5169;50.560;9.714;2023-06-10T10:15:28;530.43;;;480.57;;
10248;SDS011;5169;50.560;9.714;2023-06-10T10:20:55;524.90;;;475.27;;
10248;SDS011;5169;50.560;9.714;2023-06-10T10:23:40;510.30;;;460.97;;
10248;SDS011;5169;50.560;9.714;2023-06-10T10:26:16;533.53;;;483.30;;
10248;SDS011;5169;50.560;9.714;2023-06-10T10:28:51;547.67;;;497.52;;
10248;SDS011;5169;50.560;9.714;2023-06-10T10:31:32;550.40;;;500.48;;
10248;SDS011;5169;50.560;9.714;2023-06-10T10:34:07;559.42;;;509.17;;
10248;SDS011;5169;50.560;9.714;2023-06-10T10:36:40;585.30;;;534.70;;
10248;SDS011;5169;50.560;9.714;2023-06-10T10:39:06;589.15;;;538.22;;
10248;SDS011;5169;50.560;9.714;2023-06-10T10:41:38;584.20;;;533.78;;
10248;SDS011;5169;50.560;9.714;2023-06-10T10:44:05;563.25;;;514.10;;
10248;SDS011;5169;50.560;9.714;2023-06-10T10:46:58;598.03;;;547.72;;
10248;SDS011;5169;50.560;9.714;2023-06-10T10:49:28;589.70;;;540.38;;
10248;SDS011;5169;50.560;9.714;2023-06-10T10:57:18;670.20;;;619.38;;
10248;SDS011;5169;50.560;9.714;2023-06-10T11:02:41;681.67;;;631.67;;
10248;SDS011;5169;50.560;9.714;2023-06-10T11:05:14;662.63;;;613.70;;
10248;SDS011;5169;50.560;9.714;2023-06-10T11:07:53;692.65;;;642.70;;
10248;SDS011;5169;50.560;9.714;2023-06-10T11:10:32;690.95;;;641.22;;
10248;SDS011;5169;50.560;9.714;2023-06-10T11:13:06;667.05;;;618.20;;
10248;SDS011;5169;50.560;9.714;2023-06-10T11:15:43;686.95;;;636.95;;
10248;SDS011;5169;50.560;9.714;2023-06-10T11:18:29;711.65;;;661.03;;
10248;SDS011;5169;50.560;9.714;2023-06-10T11:21:06;689.90;;;640.45;;
10248;SDS011;5169;50.560;9.714;2023-06-10T11:33:57;712.83;;;663.00;;
10248;SDS011;5169;50.560;9.714;2023-06-10T11:36:29;705.10;;;655.42;;
10248;SDS011;5169;50.560;9.714;2023-06-10T11:39:04;704.40;;;654.75;;
10248;SDS011;5169;50.560;9.714;2023-06-10T11:41:31;673.92;;;625.25;;
10248;SDS011;5169;50.560;9.714;2023-06-10T11:44:07;690.45;;;641.15;;
10248;SDS011;5169;50.560;9.714;2023-06-10T11:46:39;680.42;;;631.45;;
10248;SDS011;5169;50.560;9.714;2023-06-10T11:49:07;691.00;;;642.05;;
10248;SDS011;5169;50.560;9.714;2023-06-10T11:51:39;704.28;;;654.67;;
10248;SDS011;5169;50.560;9.714;2023-06-10T11:54:08;728.55;;;677.95;;
10248;SDS011;5169;50.560;9.714;2023-06-10T11:56:34;742.20;;;690.55;;
10248;SDS011;5169;50.560;9.714;2023-06-10T11:59:06;755.55;;;702.47;;
10248;SDS011;5169;50.560;9.714;2023-06-10T12:01:33;759.22;;;705.45;;
10248;SDS011;5169;50.560;9.714;2023-06-10T12:04:10;744.97;;;691.63;;
10248;SDS011;5169;50.560;9.714;2023-06-10T12:09:18;754.35;;;699.60;;
10248;SDS011;5169;50.560;9.714;2023-06-10T12:11:45;725.53;;;671.45;;
10248;SDS011;5169;50.560;9.714;2023-06-10T12:19:55;695.72;;;641.85;;
10248;SDS011;5169;50.560;9.714;2023-06-10T12:22:30;690.13;;;636.65;;
10248;SDS011;5169;50.560;9.714;2023-06-10T12:25:17;681.95;;;628.45;;
10248;SDS011;5169;50.560;9.714;2023-06-10T12:27:57;678.33;;;625.08;;
10248;SDS011;5169;50.560;9.714;2023-06-10T12:30:31;679.88;;;626.45;;
10248;SDS011;5169;50.560;9.714;2023-06-10T12:32:59;682.15;;;628.80;;
10248;SDS011;5169;50.560;9.714;2023-06-10T12:35:26;660.17;;;607.20;;
10248;SDS011;5169;50.560;9.714;2023-06-10T12:40:37;662.38;;;609.25;;
10248;SDS011;5169;50.560;9.714;2023-06-10T12:43:08;675.72;;;622.20;;
10248;SDS011;5169;50.560;9.714;2023-06-10T12:45:38;667.90;;;614.65;;
10248;SDS011;5169;50.560;9.714;2023-06-10T12:48:11;630.45;;;578.88;;
10248;SDS011;5169;50.560;9.714;2023-06-10T12:50:46;639.67;;;587.63;;
10248;SDS011;5169;50.560;9.714;2023-06-10T12:53:22;631.50;;;579.72;;
10248;SDS011;5169;50.560;9.714;2023-06-10T12:55:51;631.28;;;579.47;;
10248;SDS011;5169;50.560;9.714;2023-06-10T12:58:21;609.20;;;557.92;;
10248;SDS011;5169;50.560;9.714;2023-06-10T13:00:48;632.42;;;580.60;;
10248;SDS011;5169;50.560;9.714;2023-06-10T13:03:24;611.60;;;560.25;;
10248;SDS011;5169;50.560;9.714;2023-06-10T13:05:49;624.35;;;572.42;;
10248;SDS011;5169;50.560;9.714;2023-06-10T13:08:15;621.25;;;569.50;;
10248;SDS011;5169;50.560;9.714;2023-06-10T13:10:46;616.13;;;564.67;;
10248;SDS011;5169;50.560;9.714;2023-06-10T13:13:14;612.97;;;561.33;;
10248;SDS011;5169;50.560;9.714;2023-06-10T13:15:45;626.45;;;574.17;;
10248;SDS011;5169;50.560;9.714;2023-06-10T13:18:11;586.00;;;535.22;;
10248;SDS011;5169;50.560;9.714;2023-06-10T13:20:36;593.85;;;542.67;;
10248;SDS011;5169;50.560;9.714;2023-06-10T13:23:02;602.07;;;550.93;;
10248;SDS011;5169;50.560;9.714;2023-06-10T13:25:35;613.10;;;561.47;;
10248;SDS011;5169;50.560;9.714;2023-06-10T13:28:00;619.37;;;567.43;;
10248;SDS011;5169;50.560;9.714;2023-06-10T13:30:26;584.83;;;533.97;;
10248;SDS011;5169;50.560;9.714;2023-06-10T13:32:55;629.72;;;577.40;;
10248;SDS011;5169;50.560;9.714;2023-06-10T13:35:23;624.55;;;572.15;;
10248;SDS011;5169;50.560;9.714;2023-06-10T13:37:49;630.00;;;577.72;;
10248;SDS011;5169;50.560;9.714;2023-06-10T13:40:15;614.53;;;562.90;;
10248;SDS011;5169;50.560;9.714;2023-06-10T13:42:47;609.67;;;558.25;;
10248;SDS011;5169;50.560;9.714;2023-06-10T13:45:15;592.33;;;541.22;;
10248;SDS011;5169;50.560;9.714;2023-06-10T13:47:50;624.33;;;572.58;;
10248;SDS011;5169;50.560;9.714;2023-06-10T13:50:15;594.90;;;543.65;;
10248;SDS011;5169;50.560;9.714;2023-06-10T13:52:44;608.07;;;556.63;;
10248;SDS011;5169;50.560;9.714;2023-06-10T13:55:09;603.37;;;551.83;;
10248;SDS011;5169;50.560;9.714;2023-06-10T13:57:40;598.60;;;547.47;;
10248;SDS011;5169;50.560;9.714;2023-06-10T14:00:09;593.70;;;542.20;;
10248;SDS011;5169;50.560;9.714;2023-06-10T14:02:40;572.70;;;521.70;;
10248;SDS011;5169;50.560;9.714;2023-06-10T14:05:11;584.43;;;532.83;;
10248;SDS011;5169;50.560;9.714;2023-06-10T14:07:37;576.57;;;525.37;;
10248;SDS011;5169;50.560;9.714;2023-06-10T14:10:04;586.83;;;535.05;;
10248;SDS011;5169;50.560;9.714;2023-06-10T14:12:36;602.20;;;549.90;;
10248;SDS011;5169;50.560;9.714;2023-06-10T14:15:02;583.23;;;531.60;;
10248;SDS011;5169;50.560;9.714;2023-06-10T14:17:28;588.03;;;536.43;;
10248;SDS011;5169;50.560;9.714;2023-06-10T14:19:56;575.30;;;524.20;;
10248;SDS011;5169;50.560;9.714;2023-06-10T14:22:22;592.80;;;541.13;;
10248;SDS011;5169;50.560;9.714;2023-06-10T14:24:50;579.70;;;528.33;;
10248;SDS011;5169;50.560;9.714;2023-06-10T14:27:16;596.57;;;544.47;;
10248;SDS011;5169;50.560;9.714;2023-06-10T14:29:48;597.73;;;545.93;;
10248;SDS011;5169;50.560;9.714;2023-06-10T14:32:16;574.23;;;523.13;;
10248;SDS011;5169;50.560;9.714;2023-06-10T14:34:45;571.10;;;519.90;;
10248;SDS011;5169;50.560;9.714;2023-06-10T14:37:13;577.70;;;525.97;;
10248;SDS011;5169;50.560;9.714;2023-06-10T14:39:38;603.10;;;550.97;;
10248;SDS011;5169;50.560;9.714;2023-06-10T14:42:04;583.67;;;532.30;;
10248;SDS011;5169;50.560;9.714;2023-06-10T14:44:36;570.17;;;519.45;;
10248;SDS011;5169;50.560;9.714;2023-06-10T14:47:04;570.40;;;519.47;;
10248;SDS011;5169;50.560;9.714;2023-06-10T14:49:32;573.60;;;522.63;;
10248;SDS011;5169;50.560;9.714;2023-06-10T14:52:03;569.43;;;518.50;;
10248;SDS011;5169;50.560;9.714;2023-06-10T14:54:29;552.43;;;502.10;;